createdAt,value
2022-11-28T00:00:26.459Z,4.80
2022-11-28T00:01:26.751Z,4.70
2022-11-28T00:02:27.251Z,5.00
2022-11-28T00:03:27.423Z,4.80
2022-11-28T00:04:27.662Z,4.90
2022-11-28T00:05:27.931Z,5.00
2022-11-28T00:06:28.235Z,5.10
2022-11-28T00:07:28.627Z,4.50
2022-11-28T00:08:28.806Z,5.00
2022-11-28T00:09:29.132Z,4.90
2022-11-28T00:10:29.420Z,4.70
2022-11-28T00:11:29.746Z,4.90
2022-11-28T00:12:30.410Z,4.60
2022-11-28T00:13:30.377Z,4.70
2022-11-28T00:14:30.705Z,4.70
2022-11-28T00:15:30.990Z,4.70
2022-11-28T00:16:31.426Z,4.80
2022-11-28T00:17:31.668Z,4.70
2022-11-28T00:18:31.881Z,4.90
2022-11-28T00:19:32.665Z,4.90
2022-11-28T00:20:32.443Z,4.60
2022-11-28T00:21:32.803Z,4.80
2022-11-28T00:22:33.102Z,5.00
2022-11-28T00:23:33.382Z,4.70
2022-11-28T00:24:33.840Z,4.40
2022-11-28T00:25:33.939Z,4.70
2022-11-28T00:26:34.240Z,5.10
2022-11-28T00:27:34.548Z,4.60
2022-11-28T00:28:34.868Z,4.80
2022-11-28T00:29:35.164Z,4.70
2022-11-28T00:30:35.475Z,4.80
2022-11-28T00:31:36.014Z,4.70
2022-11-28T00:32:35.998Z,4.80
2022-11-28T00:33:36.289Z,4.70
2022-11-28T00:34:36.581Z,5.00
2022-11-28T00:35:36.922Z,4.50
2022-11-28T00:36:37.199Z,4.90
2022-11-28T00:37:37.484Z,4.60
2022-11-28T00:38:37.807Z,4.80
2022-11-28T00:39:38.107Z,4.80
2022-11-28T00:40:38.379Z,4.90
2022-11-28T00:41:38.689Z,4.80
2022-11-28T00:42:38.943Z,5.00
2022-11-28T00:43:39.321Z,4.90
2022-11-28T00:44:39.901Z,4.60
2022-11-28T00:45:39.949Z,4.60
2022-11-28T00:46:40.112Z,4.90
2022-11-28T00:47:40.456Z,4.80
2022-11-28T00:48:40.784Z,4.90
2022-11-28T00:49:41.151Z,4.90
2022-11-28T00:50:41.312Z,5.00
2022-11-28T00:51:41.658Z,4.60
2022-11-28T00:52:41.926Z,5.00
2022-11-28T00:53:42.283Z,5.10
2022-11-28T00:54:42.788Z,5.10
2022-11-28T00:55:42.907Z,5.10
2022-11-28T00:56:43.227Z,4.80
2022-11-28T00:57:43.513Z,4.70
2022-11-28T00:58:43.807Z,4.70
2022-11-28T00:59:44.142Z,4.90
2022-11-28T01:00:44.461Z,5.10
2022-11-28T01:01:44.861Z,4.50
2022-11-28T01:02:45.068Z,5.10
2022-11-28T01:03:45.348Z,4.50
2022-11-28T01:04:45.639Z,5.00
2022-11-28T01:05:45.929Z,4.80
2022-11-28T01:06:46.255Z,4.80
2022-11-28T01:07:46.620Z,4.70
2022-11-28T01:08:46.786Z,5.30
2022-11-28T01:09:47.156Z,4.80
2022-11-28T01:10:47.330Z,4.80
2022-11-28T01:11:47.609Z,4.70
2022-11-28T01:12:47.904Z,5.20
2022-11-28T01:13:49.046Z,4.70
2022-11-28T01:14:48.764Z,4.50
2022-11-28T01:15:48.917Z,4.80
2022-11-28T01:16:49.183Z,4.90
2022-11-28T01:17:49.450Z,5.20
2022-11-28T01:18:49.633Z,5.00
2022-11-28T01:19:50.356Z,5.20
2022-11-28T01:20:50.175Z,5.40
2022-11-28T01:21:50.484Z,5.10
2022-11-28T01:22:50.764Z,4.90
2022-11-28T01:23:51.074Z,4.80
2022-11-28T01:24:51.357Z,4.90
2022-11-28T01:25:51.685Z,5.10
2022-11-28T01:26:51.950Z,5.00
2022-11-28T01:27:52.275Z,5.10
2022-11-28T01:28:52.586Z,4.80
2022-11-28T01:29:52.903Z,5.20
2022-11-28T01:30:54.110Z,5.20
2022-11-28T01:31:53.623Z,5.10
2022-11-28T01:32:53.781Z,4.70
2022-11-28T01:33:54.150Z,4.90
2022-11-28T01:34:56.454Z,5.00
2022-11-28T01:35:54.642Z,5.10
2022-11-28T01:36:54.949Z,4.90
2022-11-28T01:37:55.256Z,5.40
2022-11-28T01:38:55.616Z,5.00
2022-11-28T01:39:55.903Z,5.10
2022-11-28T01:40:56.190Z,5.00
2022-11-28T01:41:56.458Z,5.20
2022-11-28T01:42:56.757Z,5.20
2022-11-28T01:43:57.132Z,4.80
2022-11-28T01:44:57.296Z,4.70
2022-11-28T01:45:57.625Z,4.80
2022-11-28T01:46:57.990Z,5.00
2022-11-28T01:47:58.239Z,5.00
2022-11-28T01:48:58.493Z,5.00
2022-11-28T01:49:58.835Z,4.90
2022-11-28T01:50:59.108Z,4.70
2022-11-28T01:51:59.411Z,5.00
2022-11-28T01:52:59.697Z,5.10
2022-11-28T01:54:00.059Z,5.00
2022-11-28T01:55:00.350Z,5.10
2022-11-28T01:56:00.678Z,4.70
2022-11-28T01:57:00.914Z,4.90
2022-11-28T01:58:01.282Z,4.90
2022-11-28T01:59:01.552Z,4.90
2022-11-28T02:00:01.870Z,4.80
2022-11-28T02:01:02.313Z,5.10
2022-11-28T02:02:02.589Z,5.00
2022-11-28T02:03:02.771Z,4.70
2022-11-28T02:04:03.073Z,5.00
2022-11-28T02:05:03.464Z,4.70
2022-11-28T02:06:03.686Z,4.70
2022-11-28T02:07:03.968Z,4.90
2022-11-28T02:08:04.276Z,4.80
2022-11-28T02:09:04.551Z,4.80
2022-11-28T02:10:04.897Z,4.80
2022-11-28T02:11:05.177Z,5.00
2022-11-28T02:12:05.458Z,4.80
2022-11-28T02:13:05.737Z,5.10
2022-11-28T02:14:06.046Z,4.90
2022-11-28T02:15:06.368Z,5.10
2022-11-28T02:16:06.776Z,5.00
2022-11-28T02:17:06.944Z,4.80
2022-11-28T02:18:07.277Z,5.00
2022-11-28T02:19:07.555Z,4.70
2022-11-28T02:20:07.888Z,4.90
2022-11-28T02:21:08.272Z,4.90
2022-11-28T02:22:09.423Z,5.00
2022-11-28T02:23:08.860Z,5.20
2022-11-28T02:24:09.112Z,5.10
2022-11-28T02:25:09.351Z,5.10
2022-11-28T02:26:09.632Z,5.10
2022-11-28T02:27:09.943Z,5.30
2022-11-28T02:28:10.248Z,5.40
2022-11-28T02:29:11.372Z,5.70
2022-11-28T02:30:10.909Z,5.60
2022-11-28T02:31:12.068Z,5.60
2022-11-28T02:32:12.363Z,5.50
2022-11-28T02:33:14.045Z,5.60
2022-11-28T02:34:12.130Z,5.50
2022-11-28T02:35:17.111Z,5.70
2022-11-28T02:36:12.773Z,5.80
2022-11-28T02:37:15.323Z,5.50
2022-11-28T02:38:13.280Z,5.70
2022-11-28T02:39:15.420Z,5.90
2022-11-28T02:40:16.579Z,5.70
2022-11-28T02:41:15.110Z,5.50
2022-11-28T02:42:19.752Z,5.90
2022-11-28T02:43:17.925Z,5.60
2022-11-28T02:44:19.573Z,5.40
2022-11-28T02:45:25.724Z,5.60
2022-11-28T02:46:20.596Z,5.60
2022-11-28T02:47:19.152Z,5.50
2022-11-28T02:48:22.776Z,5.50
2022-11-28T02:49:22.420Z,5.40
2022-11-28T02:50:22.071Z,5.30
2022-11-28T02:51:30.719Z,5.50
2022-11-28T02:52:23.348Z,5.60
2022-11-28T02:53:45.559Z,5.70
2022-11-28T02:54:46.242Z,5.60
2022-11-28T02:55:22.368Z,5.90
2022-11-28T02:56:21.641Z,5.60
2022-11-28T02:57:19.989Z,5.50
2022-11-28T02:58:19.276Z,5.40
2022-11-28T02:59:19.656Z,5.80
2022-11-28T03:00:19.815Z,5.80
2022-11-28T03:01:20.222Z,5.40
2022-11-28T03:02:20.451Z,5.60
2022-11-28T03:03:20.640Z,5.50
2022-11-28T03:04:21.006Z,5.70
2022-11-28T03:05:21.234Z,5.60
2022-11-28T03:06:21.601Z,5.50
2022-11-28T03:07:21.860Z,5.60
2022-11-28T03:08:22.083Z,5.30
2022-11-28T03:09:22.336Z,5.60
2022-11-28T03:10:22.720Z,5.70
2022-11-28T03:11:23.001Z,5.80
2022-11-28T03:12:23.284Z,5.50
2022-11-28T03:13:23.488Z,5.80
2022-11-28T03:14:23.810Z,5.40
2022-11-28T03:15:24.124Z,5.80
2022-11-28T03:16:24.500Z,5.80
2022-11-28T03:17:24.710Z,5.80
2022-11-28T03:18:25.026Z,5.30
2022-11-28T03:19:25.338Z,5.30
2022-11-28T03:20:25.628Z,5.50
2022-11-28T03:21:25.955Z,5.40
2022-11-28T03:22:26.309Z,5.40
2022-11-28T03:23:26.489Z,5.60
2022-11-28T03:24:26.781Z,5.20
2022-11-28T03:25:27.097Z,5.50
2022-11-28T03:26:27.401Z,5.30
2022-11-28T03:27:27.689Z,5.40
2022-11-28T03:28:28.034Z,4.80
2022-11-28T03:29:28.322Z,5.20
2022-11-28T03:30:28.709Z,5.10
2022-11-28T03:31:28.935Z,5.30
2022-11-28T03:32:29.170Z,5.00
2022-11-28T03:33:29.539Z,4.90
2022-11-28T03:34:29.826Z,5.10
2022-11-28T03:35:30.172Z,5.10
2022-11-28T03:36:30.480Z,5.00
2022-11-28T03:37:30.798Z,5.00
2022-11-28T03:38:31.091Z,5.00
2022-11-28T03:39:31.385Z,5.30
2022-11-28T03:40:31.713Z,5.10
2022-11-28T03:41:32.017Z,5.30
2022-11-28T03:42:32.344Z,4.80
2022-11-28T03:43:32.642Z,4.70
2022-11-28T03:44:32.957Z,4.90
2022-11-28T03:45:33.279Z,4.80
2022-11-28T03:46:33.654Z,5.00
2022-11-28T03:47:33.785Z,5.20
2022-11-28T03:48:34.125Z,4.90
2022-11-28T03:49:34.433Z,5.20
2022-11-28T03:50:34.808Z,4.90
2022-11-28T03:51:34.988Z,5.30
2022-11-28T03:52:35.466Z,5.20
2022-11-28T03:53:35.588Z,5.60
2022-11-28T03:54:35.959Z,5.20
2022-11-28T03:55:36.267Z,5.50
2022-11-28T03:56:36.482Z,5.50
2022-11-28T03:57:36.724Z,5.20
2022-11-28T03:58:36.916Z,5.50
2022-11-28T03:59:37.207Z,5.50
2022-11-28T04:00:37.537Z,5.40
2022-11-28T04:01:41.054Z,5.60
2022-11-28T04:02:40.541Z,5.40
2022-11-28T04:03:43.767Z,5.50
2022-11-28T04:04:43.608Z,5.60
2022-11-28T04:05:47.571Z,5.40
2022-11-28T04:06:49.714Z,5.60
2022-11-28T04:07:42.975Z,5.50
2022-11-28T04:08:44.507Z,5.50
2022-11-28T04:09:50.335Z,5.60
2022-11-28T04:10:43.019Z,5.90
2022-11-28T04:11:47.202Z,5.40
2022-11-28T04:12:43.306Z,5.80
2022-11-28T04:13:47.466Z,5.60
2022-11-28T04:14:48.106Z,5.70
2022-11-28T04:15:48.786Z,5.90
2022-11-28T04:16:53.746Z,5.80
2022-11-28T04:17:49.983Z,5.90
2022-11-28T04:18:45.182Z,6.00
2022-11-28T04:19:46.434Z,5.80
2022-11-28T04:20:50.003Z,5.60
2022-11-28T04:22:10.209Z,6.20
2022-11-28T04:22:54.360Z,6.00
2022-11-28T04:23:48.436Z,5.80
2022-11-28T04:24:59.625Z,6.20
2022-11-28T04:25:52.744Z,5.90
2022-11-28T04:26:56.378Z,5.90
2022-11-28T04:27:45.817Z,5.60
2022-11-28T04:28:52.713Z,6.00
2022-11-28T04:29:46.631Z,5.80
2022-11-28T04:30:51.755Z,5.50
2022-11-28T04:34:47.917Z,5.50
2022-11-28T04:35:22.149Z,5.50
2022-11-28T04:36:27.816Z,6.00
2022-11-28T04:37:26.467Z,6.10
2022-11-28T04:38:24.108Z,5.80
2022-11-28T04:39:24.744Z,5.80
2022-11-28T04:40:25.959Z,6.20
2022-11-28T04:41:27.054Z,5.80
2022-11-28T04:42:23.760Z,5.90
2022-11-28T04:43:53.706Z,6.70
2022-11-28T04:44:48.540Z,6.30
2022-11-28T04:45:23.682Z,6.00
2022-11-28T04:46:53.897Z,6.20
2022-11-28T04:47:30.523Z,6.10
2022-11-28T04:48:50.031Z,5.80
2022-11-28T04:49:32.684Z,5.90
2022-11-28T04:50:31.289Z,5.80
2022-11-28T04:51:32.942Z,6.00
2022-11-28T04:57:08.216Z,5.90
2022-11-28T04:57:46.344Z,6.00
2022-11-28T05:02:25.285Z,6.00
2022-11-28T05:03:03.109Z,6.10
2022-11-28T05:04:01.957Z,6.10
2022-11-28T05:05:02.166Z,6.00
2022-11-28T05:06:02.485Z,6.30
2022-11-28T05:07:02.930Z,6.20
2022-11-28T05:08:03.174Z,6.00
2022-11-28T05:09:03.377Z,6.10
2022-11-28T05:10:03.550Z,6.10
2022-11-28T05:11:03.945Z,6.30
2022-11-28T05:12:04.248Z,6.50
2022-11-28T05:13:04.569Z,6.20
2022-11-28T05:14:04.883Z,6.50
2022-11-28T05:15:05.102Z,6.50
2022-11-28T05:16:05.428Z,6.40
2022-11-28T05:17:05.687Z,6.20
2022-11-28T05:18:05.949Z,6.60
2022-11-28T05:19:06.240Z,6.20
2022-11-28T05:20:06.455Z,6.40
2022-11-28T05:21:06.729Z,6.70
2022-11-28T05:22:06.989Z,6.60
2022-11-28T05:23:07.303Z,7.10
2022-11-28T05:24:07.681Z,6.60
2022-11-28T05:25:09.698Z,6.50
2022-11-28T05:26:09.038Z,6.60
2022-11-28T05:27:23.999Z,6.60
2022-11-28T05:28:20.655Z,6.50
2022-11-28T05:29:40.815Z,6.60
2022-11-28T05:30:18.496Z,6.90
2022-11-28T05:31:42.322Z,6.60
2022-11-28T05:32:18.896Z,7.00
2022-11-28T05:33:34.557Z,6.50
2022-11-28T05:34:14.179Z,6.60
2022-11-28T05:35:13.415Z,6.40
2022-11-28T05:36:13.523Z,6.80
2022-11-28T05:37:21.456Z,6.50
2022-11-28T05:38:19.105Z,6.60
2022-11-28T05:39:19.756Z,6.80
2022-11-28T05:40:16.460Z,6.60
2022-11-28T05:41:26.614Z,7.00
2022-11-28T05:42:13.745Z,6.60
2022-11-28T05:43:15.738Z,6.80
2022-11-28T05:44:26.985Z,6.70
2022-11-28T05:45:23.705Z,6.40
2022-11-28T05:46:19.859Z,6.90
2022-11-28T05:47:25.378Z,6.50
2022-11-28T05:48:25.589Z,6.90
2022-11-28T05:49:30.190Z,6.90
2022-11-28T05:50:53.313Z,7.00
2022-11-28T05:51:23.018Z,6.90
2022-11-28T05:52:18.387Z,7.00
2022-11-28T05:57:27.965Z,7.10
2022-11-28T05:58:12.609Z,7.10
2022-11-28T05:59:04.472Z,7.00
2022-11-28T06:00:09.552Z,7.30
2022-11-28T06:01:05.516Z,7.10
2022-11-28T06:02:04.933Z,7.00
2022-11-28T06:03:09.556Z,7.50
2022-11-28T06:04:06.779Z,7.20
2022-11-28T06:05:27.746Z,7.20
2022-11-28T06:06:09.129Z,7.00
2022-11-28T06:26:34.104Z,7.80
2022-11-28T06:27:08.252Z,8.00
2022-11-28T06:28:01.835Z,8.30
2022-11-28T06:29:21.523Z,8.10
2022-11-28T06:30:05.170Z,7.40
2022-11-28T06:31:02.059Z,7.70
2022-11-28T06:32:03.054Z,8.30
2022-11-28T06:33:02.497Z,7.50
2022-11-28T06:34:02.850Z,8.10
2022-11-28T06:35:03.060Z,8.40
2022-11-28T06:36:03.396Z,8.00
2022-11-28T06:37:03.691Z,8.20
2022-11-28T06:38:03.995Z,7.40
2022-11-28T06:39:04.330Z,8.30
2022-11-28T06:40:04.562Z,8.00
2022-11-28T06:41:04.978Z,7.40
2022-11-28T06:42:05.180Z,7.30
2022-11-28T06:43:05.490Z,7.80
2022-11-28T06:44:05.673Z,7.70
2022-11-28T06:45:06.086Z,7.70
2022-11-28T06:46:06.331Z,7.60
2022-11-28T06:47:06.589Z,9.00
2022-11-28T06:48:06.789Z,8.00
2022-11-28T06:49:07.014Z,7.80
2022-11-28T06:50:07.308Z,7.90
2022-11-28T06:51:07.484Z,7.90
2022-11-28T06:52:07.830Z,7.50
2022-11-28T06:53:08.055Z,7.80
2022-11-28T06:54:08.308Z,7.90
2022-11-28T06:55:08.608Z,7.70
2022-11-28T06:56:08.801Z,7.50
2022-11-28T06:57:09.201Z,7.40
2022-11-28T06:58:09.452Z,7.80
2022-11-28T06:59:09.735Z,7.60
2022-11-28T07:00:09.941Z,7.70
2022-11-28T07:01:10.367Z,8.10
2022-11-28T07:02:10.620Z,7.30
2022-11-28T07:03:10.861Z,7.70
2022-11-28T07:04:11.079Z,7.50
2022-11-28T07:05:11.489Z,7.30
2022-11-28T07:06:11.736Z,7.60
2022-11-28T07:07:16.265Z,7.70
2022-11-28T07:08:12.283Z,7.50
2022-11-28T07:09:12.486Z,7.70
2022-11-28T07:10:12.760Z,7.40
2022-11-28T07:11:13.019Z,7.50
2022-11-28T07:12:13.227Z,7.70
2022-11-28T07:13:13.618Z,7.70
2022-11-28T07:14:13.882Z,7.70
2022-11-28T07:15:14.133Z,8.00
2022-11-28T07:16:14.461Z,7.80
2022-11-28T07:17:14.647Z,7.40
2022-11-28T07:18:14.814Z,7.20
2022-11-28T07:19:15.238Z,7.70
2022-11-28T07:20:15.429Z,7.80
2022-11-28T07:21:15.718Z,7.70
2022-11-28T07:22:15.916Z,7.90
2022-11-28T07:23:16.279Z,7.70
2022-11-28T07:24:16.543Z,8.00
2022-11-28T07:25:16.839Z,8.20
2022-11-28T07:26:17.015Z,8.20
2022-11-28T07:27:17.296Z,8.00
2022-11-28T07:28:21.912Z,7.90
2022-11-28T07:29:18.829Z,7.80
2022-11-28T07:30:18.049Z,7.70
2022-11-28T07:31:18.502Z,8.10
2022-11-28T07:32:18.750Z,8.00
2022-11-28T07:33:18.947Z,7.80
2022-11-28T07:34:19.221Z,8.00
2022-11-28T07:35:19.464Z,7.80
2022-11-28T07:36:19.759Z,8.00
2022-11-28T07:37:20.022Z,7.80
2022-11-28T07:38:20.302Z,7.80
2022-11-28T07:39:20.700Z,7.50
2022-11-28T07:40:20.801Z,7.60
2022-11-28T07:41:26.060Z,8.00
2022-11-28T07:42:22.349Z,7.80
2022-11-28T07:43:21.572Z,7.90
2022-11-28T07:44:21.956Z,8.10
2022-11-28T07:45:32.941Z,8.30
2022-11-28T07:46:23.533Z,8.10
2022-11-28T07:47:22.669Z,7.90
2022-11-28T07:48:22.951Z,7.80
2022-11-28T07:49:23.160Z,7.80
2022-11-28T07:50:23.435Z,8.50
2022-11-28T07:51:23.741Z,8.60
2022-11-28T07:52:23.958Z,8.10
2022-11-28T07:53:24.253Z,8.30
2022-11-28T07:54:24.424Z,8.20
2022-11-28T07:55:24.842Z,8.30
2022-11-28T07:56:25.102Z,8.60
2022-11-28T07:57:25.466Z,8.30
2022-11-28T07:58:25.669Z,8.50
2022-11-28T07:59:25.988Z,8.40
2022-11-28T08:00:26.275Z,8.80
2022-11-28T08:01:26.527Z,8.30
2022-11-28T08:02:26.802Z,8.80
2022-11-28T08:03:27.064Z,8.70
2022-11-28T08:04:27.436Z,8.70
2022-11-28T08:05:27.686Z,8.60
2022-11-28T08:06:27.887Z,8.50
2022-11-28T08:07:29.218Z,8.60
2022-11-28T08:08:28.385Z,8.70
2022-11-28T08:09:28.702Z,8.50
2022-11-28T08:10:28.954Z,8.40
2022-11-28T08:11:29.260Z,8.80
2022-11-28T08:12:29.552Z,9.00
2022-11-28T08:13:29.738Z,9.90
2022-11-28T08:14:30.046Z,8.90
2022-11-28T08:15:30.354Z,8.70
2022-11-28T08:16:30.710Z,8.80
2022-11-28T08:17:30.920Z,9.00
2022-11-28T08:18:31.212Z,8.80
2022-11-28T08:19:35.038Z,9.00
2022-11-28T08:20:31.751Z,8.80
2022-11-28T08:21:31.982Z,8.80
2022-11-28T08:22:32.255Z,8.60
2022-11-28T08:23:32.576Z,9.10
2022-11-28T08:24:32.779Z,9.60
2022-11-28T08:25:33.054Z,9.50
2022-11-28T08:26:33.318Z,10.20
2022-11-28T08:27:33.649Z,10.40
2022-11-28T08:28:33.964Z,9.60
2022-11-28T08:29:34.206Z,9.10
2022-11-28T08:30:34.481Z,11.20
2022-11-28T08:31:34.774Z,9.20
2022-11-28T08:32:34.980Z,9.70
2022-11-28T08:33:35.233Z,9.00
2022-11-28T08:34:35.553Z,9.10
2022-11-28T08:35:35.775Z,9.30
2022-11-28T08:36:36.034Z,9.20
2022-11-28T08:37:36.292Z,9.40
2022-11-28T08:38:36.508Z,9.40
2022-11-28T08:39:36.915Z,9.20
2022-11-28T08:40:37.120Z,9.30
2022-11-28T08:41:37.445Z,9.60
2022-11-28T08:42:37.689Z,9.30
2022-11-28T08:43:38.000Z,9.30
2022-11-28T08:44:38.263Z,9.80
2022-11-28T08:45:38.608Z,9.40
2022-11-28T08:46:38.824Z,9.60
2022-11-28T08:47:39.075Z,9.60
2022-11-28T08:48:39.335Z,9.50
2022-11-28T08:49:39.571Z,9.30
2022-11-28T08:50:43.689Z,9.00
2022-11-28T08:51:41.117Z,10.30
2022-11-28T08:52:40.397Z,9.30
2022-11-28T08:53:40.674Z,9.60
2022-11-28T08:54:41.101Z,9.70
2022-11-28T08:55:41.978Z,9.40
2022-11-28T08:56:41.497Z,9.60
2022-11-28T08:57:41.730Z,9.80
2022-11-28T08:58:42.026Z,10.00
2022-11-28T08:59:42.768Z,9.80
2022-11-28T09:00:42.577Z,9.70
2022-11-28T09:01:42.857Z,10.10
2022-11-28T09:02:43.276Z,10.40
2022-11-28T09:03:45.392Z,10.10
2022-11-28T09:04:43.815Z,10.60
2022-11-28T09:05:44.894Z,10.30
2022-11-28T09:06:44.942Z,10.10
2022-11-28T09:07:44.744Z,10.50
2022-11-28T09:08:44.916Z,10.10
2022-11-28T09:09:45.641Z,10.00
2022-11-28T09:10:45.438Z,10.20
2022-11-28T09:11:45.740Z,10.40
2022-11-28T09:12:46.013Z,11.00
2022-11-28T09:13:47.337Z,9.80
2022-11-28T09:14:46.666Z,10.30
2022-11-28T09:15:50.057Z,10.60
2022-11-28T09:16:48.260Z,10.70
2022-11-28T09:17:47.390Z,10.30
2022-11-28T09:18:47.673Z,10.40
2022-11-28T09:19:47.941Z,10.50
2022-11-28T09:20:48.231Z,10.30
2022-11-28T09:21:51.922Z,9.90
2022-11-28T09:22:49.889Z,10.30
2022-11-28T09:23:50.049Z,10.80
2022-11-28T09:24:49.339Z,10.20
2022-11-28T09:25:49.682Z,11.00
2022-11-28T09:26:49.975Z,10.70
2022-11-28T09:27:50.222Z,10.40
2022-11-28T09:28:50.461Z,10.30
2022-11-28T09:29:50.800Z,11.40
2022-11-28T09:30:51.066Z,11.00
2022-11-28T09:31:51.323Z,10.20
2022-11-28T09:32:51.623Z,10.40
2022-11-28T09:33:51.901Z,10.50
2022-11-28T09:34:52.178Z,10.50
2022-11-28T09:35:52.425Z,10.60
2022-11-28T09:36:52.705Z,10.70
2022-11-28T09:37:53.117Z,10.10
2022-11-28T09:38:53.259Z,10.50
2022-11-28T09:40:12.102Z,10.70
2022-11-28T09:40:54.888Z,10.80
2022-11-28T09:41:54.106Z,10.90
2022-11-28T09:42:54.397Z,10.90
2022-11-28T09:43:55.154Z,10.90
2022-11-28T09:44:54.899Z,11.10
2022-11-28T09:45:55.300Z,10.60
2022-11-28T09:46:55.426Z,11.10
2022-11-28T09:47:55.818Z,11.40
2022-11-28T09:48:55.927Z,10.90
2022-11-28T09:49:56.238Z,11.30
2022-11-28T09:50:56.485Z,10.90
2022-11-28T09:51:56.838Z,10.80
2022-11-28T09:52:57.223Z,10.90
2022-11-28T09:53:57.508Z,11.30
2022-11-28T09:54:57.749Z,11.20
2022-11-28T09:55:58.009Z,11.60
2022-11-28T09:56:58.399Z,11.10
2022-11-28T09:57:58.510Z,11.40
2022-11-28T09:58:58.880Z,11.00
2022-11-28T09:59:59.201Z,10.90
2022-11-28T10:00:59.531Z,10.90
2022-11-28T10:01:59.936Z,10.60
2022-11-28T10:03:00.095Z,11.30
2022-11-28T10:04:00.472Z,11.60
2022-11-28T10:05:00.756Z,11.30
2022-11-28T10:06:00.874Z,11.20
2022-11-28T10:07:01.155Z,11.10
2022-11-28T10:08:01.521Z,11.40
2022-11-28T10:09:01.697Z,11.50
2022-11-28T10:10:02.065Z,11.30
2022-11-28T10:11:02.795Z,11.10
2022-11-28T10:12:02.631Z,11.90
2022-11-28T10:13:02.893Z,12.30
2022-11-28T10:14:10.471Z,11.80
2022-11-28T10:15:04.541Z,11.40
2022-11-28T10:16:03.855Z,12.70
2022-11-28T10:17:04.242Z,13.20
2022-11-28T10:18:04.358Z,12.00
2022-11-28T10:19:04.684Z,11.60
2022-11-28T10:20:04.926Z,11.90
2022-11-28T10:21:05.183Z,11.90
2022-11-28T10:22:05.515Z,11.80
2022-11-28T10:23:05.711Z,12.20
2022-11-28T10:24:06.136Z,11.40
2022-11-28T10:25:06.400Z,11.70
2022-11-28T10:26:06.665Z,11.60
2022-11-28T10:27:06.953Z,11.50
2022-11-28T10:28:07.216Z,11.50
2022-11-28T10:29:07.560Z,12.20
2022-11-28T10:30:07.792Z,12.10
2022-11-28T10:31:08.158Z,12.30
2022-11-28T10:32:08.477Z,12.10
2022-11-28T10:33:08.689Z,12.00
2022-11-28T10:34:08.982Z,12.60
2022-11-28T10:35:09.237Z,12.40
2022-11-28T10:36:09.531Z,12.00
2022-11-28T10:37:09.778Z,12.30
2022-11-28T10:38:10.060Z,12.00
2022-11-28T10:39:11.377Z,12.30
2022-11-28T10:40:10.631Z,12.10
2022-11-28T10:41:10.895Z,12.20
2022-11-28T10:42:11.183Z,12.30
2022-11-28T10:43:11.399Z,12.30
2022-11-28T10:44:14.767Z,12.20
2022-11-28T10:45:12.946Z,12.40
2022-11-28T10:46:12.291Z,12.80
2022-11-28T10:47:12.549Z,12.10
2022-11-28T10:48:38.358Z,12.00
2022-11-28T10:49:14.110Z,12.30
2022-11-28T10:50:13.413Z,12.60
2022-11-28T10:51:13.710Z,12.70
2022-11-28T10:52:13.945Z,12.50
2022-11-28T10:53:14.195Z,12.70
2022-11-28T10:54:14.482Z,12.70
2022-11-28T10:55:14.734Z,12.40
2022-11-28T10:56:15.076Z,12.60
2022-11-28T10:57:15.275Z,12.50
2022-11-28T10:58:15.565Z,21.60
2022-11-28T10:59:15.805Z,14.60
2022-11-28T11:00:16.122Z,12.20
2022-11-28T11:01:16.456Z,12.20
2022-11-28T11:02:16.715Z,12.00
2022-11-28T11:03:16.980Z,12.60
2022-11-28T11:04:17.270Z,14.30
2022-11-28T11:05:17.541Z,14.70
2022-11-28T11:06:17.789Z,12.30
2022-11-28T11:07:22.784Z,12.20
2022-11-28T11:08:19.421Z,12.10
2022-11-28T11:09:18.634Z,12.90
2022-11-28T11:10:18.894Z,13.00
2022-11-28T11:11:19.198Z,13.00
2022-11-28T11:12:19.480Z,12.60
2022-11-28T11:13:19.751Z,12.20
2022-11-28T11:14:20.036Z,12.30
2022-11-28T11:15:20.341Z,12.30
2022-11-28T11:16:20.707Z,12.40
2022-11-28T11:17:20.793Z,12.70
2022-11-28T11:18:21.049Z,12.30
2022-11-28T11:19:21.367Z,12.90
2022-11-28T11:20:21.589Z,12.70
2022-11-28T11:21:21.867Z,12.80
2022-11-28T11:22:22.097Z,13.10
2022-11-28T11:23:22.330Z,12.80
2022-11-28T11:24:22.649Z,12.90
2022-11-28T11:25:22.877Z,13.00
2022-11-28T11:26:23.128Z,13.40
2022-11-28T11:27:23.445Z,13.10
2022-11-28T11:28:23.700Z,13.20
2022-11-28T11:29:24.024Z,13.00
2022-11-28T11:30:25.273Z,13.60
2022-11-28T11:31:24.667Z,12.80
2022-11-28T11:32:24.915Z,13.00
2022-11-28T11:33:25.177Z,14.40
2022-11-28T11:34:25.563Z,13.20
2022-11-28T11:35:25.780Z,13.90
2022-11-28T11:36:26.072Z,14.20
2022-11-28T11:37:26.312Z,13.60
2022-11-28T11:38:26.568Z,14.60
2022-11-28T11:39:26.822Z,13.50
2022-11-28T11:40:27.094Z,14.00
2022-11-28T11:41:27.427Z,13.60
2022-11-28T11:42:27.649Z,13.50
2022-11-28T11:43:27.946Z,13.20
2022-11-28T11:44:28.201Z,13.70
2022-11-28T11:45:28.480Z,14.00
2022-11-28T11:46:28.866Z,14.40
2022-11-28T11:47:29.061Z,13.90
2022-11-28T11:48:29.375Z,13.70
2022-11-28T11:49:29.655Z,14.40
2022-11-28T11:50:29.976Z,14.00
2022-11-28T11:51:32.770Z,13.50
2022-11-28T11:52:31.551Z,13.60
2022-11-28T11:53:30.803Z,13.80
2022-11-28T11:54:31.073Z,13.80
2022-11-28T11:55:32.250Z,13.10
2022-11-28T11:56:31.683Z,13.70
2022-11-28T11:57:33.855Z,13.80
2022-11-28T11:58:32.270Z,13.40
2022-11-28T11:59:32.472Z,13.70
2022-11-28T12:00:32.789Z,14.20
2022-11-28T12:01:34.507Z,13.30
2022-11-28T12:02:33.512Z,16.20
2022-11-28T12:03:33.782Z,13.00
2022-11-28T12:04:54.984Z,14.20
2022-11-28T12:05:59.084Z,15.60
2022-11-28T12:06:35.620Z,14.30
2022-11-28T12:07:34.863Z,14.50
2022-11-28T12:08:35.167Z,14.60
2022-11-28T12:09:35.357Z,15.50
2022-11-28T12:10:35.611Z,13.50
2022-11-28T12:11:35.919Z,16.70
2022-11-28T12:12:36.282Z,13.80
2022-11-28T12:13:36.527Z,13.60
2022-11-28T12:14:36.841Z,13.40
2022-11-28T12:15:37.093Z,13.10
2022-11-28T12:16:37.453Z,14.80
2022-11-28T12:17:58.338Z,16.70
2022-11-28T12:18:39.020Z,13.90
2022-11-28T12:19:38.178Z,14.10
2022-11-28T12:20:38.453Z,13.70
2022-11-28T12:21:38.754Z,14.10
2022-11-28T12:22:39.005Z,21.60
2022-11-28T12:23:39.286Z,16.80
2022-11-28T12:24:39.551Z,25.90
2022-11-28T12:25:39.823Z,18.30
2022-11-28T12:26:40.129Z,13.60
2022-11-28T12:27:40.321Z,13.70
2022-11-28T12:28:40.662Z,14.40
2022-11-28T12:29:40.898Z,34.70
2022-11-28T12:30:44.590Z,17.30
2022-11-28T12:31:41.540Z,20.20
2022-11-28T12:32:41.755Z,23.00
2022-11-28T12:33:42.099Z,21.80
2022-11-28T12:34:42.386Z,15.30
2022-11-28T12:35:42.668Z,14.10
2022-11-28T12:36:42.963Z,14.40
2022-11-28T12:38:09.888Z,15.40
2022-11-28T12:38:44.542Z,17.80
2022-11-28T12:39:43.970Z,13.50
2022-11-28T12:40:44.103Z,12.90
2022-11-28T12:41:44.395Z,13.50
2022-11-28T12:42:44.648Z,14.30
2022-11-28T12:43:45.009Z,17.40
2022-11-28T12:44:45.245Z,13.10
2022-11-28T12:45:46.426Z,14.00
2022-11-28T12:46:45.948Z,14.60
2022-11-28T12:47:46.025Z,15.10
2022-11-28T12:48:51.630Z,14.60
2022-11-28T12:49:47.707Z,14.50
2022-11-28T12:50:46.888Z,15.90
2022-11-28T12:51:47.121Z,15.40
2022-11-28T12:52:47.406Z,19.70
2022-11-28T12:53:47.674Z,15.00
2022-11-28T12:54:47.936Z,15.90
2022-11-28T12:55:48.193Z,13.20
2022-11-28T12:56:48.586Z,16.00
2022-11-28T12:57:48.823Z,15.20
2022-11-28T12:58:49.077Z,13.00
2022-11-28T12:59:49.399Z,11.90
2022-11-28T13:00:49.616Z,12.20
2022-11-28T13:01:49.903Z,11.90
2022-11-28T13:02:50.344Z,11.40
2022-11-28T13:03:50.494Z,11.20
2022-11-28T13:04:50.783Z,11.40
2022-11-28T13:05:51.050Z,11.50
2022-11-28T13:06:51.307Z,12.40
2022-11-28T13:07:51.577Z,12.00
2022-11-28T13:08:52.077Z,11.80
2022-11-28T13:09:52.175Z,12.30
2022-11-28T13:10:52.411Z,11.30
2022-11-28T13:11:52.694Z,11.80
2022-11-28T13:12:52.969Z,12.80
2022-11-28T13:13:53.267Z,12.50
2022-11-28T13:14:53.529Z,11.70
2022-11-28T13:15:53.853Z,11.90
2022-11-28T13:16:54.380Z,11.10
2022-11-28T13:17:54.340Z,11.30
2022-11-28T13:18:54.621Z,10.90
2022-11-28T13:19:54.889Z,13.50
2022-11-28T13:20:55.267Z,14.70
2022-11-28T13:21:55.497Z,15.40
2022-11-28T13:22:55.774Z,14.00
2022-11-28T13:23:56.051Z,13.80
2022-11-28T13:24:56.324Z,19.90
2022-11-28T13:25:56.595Z,16.30
2022-11-28T13:26:56.938Z,13.40
2022-11-28T13:27:57.211Z,21.20
2022-11-28T13:28:57.462Z,12.90
2022-11-28T13:29:57.713Z,14.90
2022-11-28T13:30:57.985Z,13.50
2022-11-28T13:32:01.911Z,12.90
2022-11-28T13:32:58.495Z,12.80
2022-11-28T13:33:58.733Z,12.10
2022-11-28T13:34:59.027Z,13.20
2022-11-28T13:35:59.309Z,14.40
2022-11-28T13:39:12.548Z,15.20
2022-11-28T13:40:01.421Z,12.20
2022-11-28T13:41:00.712Z,12.00
2022-11-28T13:42:28.249Z,13.50
2022-11-28T13:43:07.013Z,12.80
2022-11-28T13:44:02.638Z,13.10
2022-11-28T13:45:02.007Z,13.20
2022-11-28T13:46:02.275Z,12.80
2022-11-28T13:47:02.613Z,12.60